Time;durP1;ratioP1;P1;durP2;ratioP2;P2;SDS_P1;SDS_P2;PMS_P1;PMS_P2;Temp;Humidity;BMP_temperature;BMP_pressure;BME280_temperature;BME280_humidity;BME280_pressure;Samples;Min_cycle;Max_cycle;Signal;HPM_P1;HPM_P2
2022/04/09 00:00:38;;;;;;;16.92;2.80;;;;;;;;;;4994509;28;20046;-80
2022/04/09 00:03:04;;;;;;;18.42;3.17;;;;;;;;;;4994736;28;20439;-72
2022/04/09 00:05:30;;;;;;;16.98;2.90;;;;;;;;;;4994872;28;20026;-81
2022/04/09 00:07:56;;;;;;;18.17;3.92;;;;;;;;;;4994757;28;20485;-72
2022/04/09 00:10:22;;;;;;;20.90;3.60;;;;;;;;;;4994713;28;20034;-72
2022/04/09 00:12:48;;;;;;;19.38;3.00;;;;;;;;;;4994363;28;20034;-74
2022/04/09 00:15:16;;;;;;;14.05;3.00;;;;;;;;;;4994524;28;20026;-71
2022/04/09 00:17:43;;;;;;;18.05;3.53;;;;;;;;;;4994518;28;20049;-80
2022/04/09 00:20:10;;;;;;;19.38;3.20;;;;;;;;;;4994399;28;20085;-80
2022/04/09 00:22:36;;;;;;;17.45;2.97;;;;;;;;;;4994370;28;20100;-79
2022/04/09 00:25:04;;;;;;;17.23;3.30;;;;;;;;;;4994555;28;20034;-78
2022/04/09 00:27:30;;;;;;;15.60;3.08;;;;;;;;;;4994371;28;20077;-72
2022/04/09 00:29:56;;;;;;;18.20;3.33;;;;;;;;;;4993839;28;20058;-75
2022/04/09 00:32:22;;;;;;;21.40;4.32;;;;;;;;;;4993890;28;20061;-77
2022/04/09 00:34:48;;;;;;;22.67;3.95;;;;;;;;;;4994022;28;20073;-81
2022/04/09 00:37:15;;;;;;;11.63;2.75;;;;;;;;;;4993880;28;20054;-72
2022/04/09 00:39:41;;;;;;;17.08;3.90;;;;;;;;;;4993585;28;20026;-79
2022/04/09 00:42:13;;;;;;;20.52;3.42;;;;;;;;;;4993802;28;20076;-80
2022/04/09 00:44:39;;;;;;;17.75;3.13;;;;;;;;;;4993947;28;20047;-79
2022/04/09 00:47:05;;;;;;;17.52;3.30;;;;;;;;;;4993918;28;20025;-75
2022/04/09 00:49:31;;;;;;;18.38;3.20;;;;;;;;;;4994280;28;20026;-80
2022/04/09 00:51:59;;;;;;;17.35;3.65;;;;;;;;;;4993782;28;20036;-72
2022/04/09 00:54:27;;;;;;;19.75;3.53;;;;;;;;;;4993932;28;20026;-72
2022/04/09 00:56:54;;;;;;;16.15;2.75;;;;;;;;;;4993742;28;20034;-72
2022/04/09 00:59:23;;;;;;;14.73;2.92;;;;;;;;;;4990917;28;20480;-80
2022/04/09 01:01:52;;;;;;;16.02;3.05;;;;;;;;;;4990634;28;20070;-72
2022/04/09 01:04:18;;;;;;;18.38;3.22;;;;;;;;;;4991921;28;20133;-79
2022/04/09 01:06:44;;;;;;;16.63;3.97;;;;;;;;;;4993556;28;20479;-72
2022/04/09 01:09:10;;;;;;;26.77;4.63;;;;;;;;;;4993747;28;20053;-71
2022/04/09 01:11:39;;;;;;;14.43;3.55;;;;;;;;;;4993470;28;20427;-72
2022/04/09 01:14:05;;;;;;;20.95;3.50;;;;;;;;;;4993132;28;20026;-73
2022/04/09 01:16:31;;;;;;;13.65;2.65;;;;;;;;;;4993288;28;20023;-78
2022/04/09 01:18:58;;;;;;;11.30;2.35;;;;;;;;;;4993300;28;20022;-71
2022/04/09 01:21:25;;;;;;;14.73;3.47;;;;;;;;;;4992920;28;20026;-72
2022/04/09 01:23:51;;;;;;;18.05;2.78;;;;;;;;;;4993307;28;20065;-80
2022/04/09 01:26:17;;;;;;;17.95;3.17;;;;;;;;;;4993426;28;20022;-79
2022/04/09 01:28:44;;;;;;;12.07;3.00;;;;;;;;;;4993204;28;20061;-80
2022/04/09 01:31:10;;;;;;;14.65;3.38;;;;;;;;;;4993912;28;20370;-79
2022/04/09 01:33:36;;;;;;;20.30;3.13;;;;;;;;;;4993192;28;20419;-75
2022/04/09 01:36:02;;;;;;;13.50;2.80;;;;;;;;;;4993229;28;20026;-72
2022/04/09 01:38:28;;;;;;;13.65;3.10;;;;;;;;;;4993378;28;20081;-80
2022/04/09 01:40:54;;;;;;;17.00;2.88;;;;;;;;;;4993235;28;20030;-72
2022/04/09 01:43:21;;;;;;;17.50;3.55;;;;;;;;;;4993350;28;20038;-72
2022/04/09 01:45:47;;;;;;;15.02;2.72;;;;;;;;;;4993509;28;20030;-73
2022/04/09 01:48:13;;;;;;;17.02;3.72;;;;;;;;;;4993335;28;20030;-72
2022/04/09 01:50:40;;;;;;;18.30;3.75;;;;;;;;;;4993172;28;20113;-72
2022/04/09 01:53:06;;;;;;;16.45;3.47;;;;;;;;;;4995984;28;20038;-79
2022/04/09 01:55:35;;;;;;;19.25;3.45;;;;;;;;;;4997100;28;20066;-73
2022/04/09 01:58:01;;;;;;;23.20;3.70;;;;;;;;;;4996859;28;20034;-73
2022/04/09 02:00:27;;;;;;;19.45;3.92;;;;;;;;;;4996833;28;20027;-73
2022/04/09 02:02:53;;;;;;;12.10;2.80;;;;;;;;;;4996752;28;20065;-78
2022/04/09 02:05:19;;;;;;;16.58;3.15;;;;;;;;;;4996864;28;20026;-73
2022/04/09 02:07:47;;;;;;;18.35;3.20;;;;;;;;;;4997023;28;20113;-72
2022/04/09 02:10:14;;;;;;;15.30;3.00;;;;;;;;;;4996687;28;20479;-80
2022/04/09 02:12:40;;;;;;;18.02;3.58;;;;;;;;;;4996814;28;20033;-80
2022/04/09 02:15:08;;;;;;;19.35;4.07;;;;;;;;;;4996614;28;20033;-79
2022/04/09 02:17:35;;;;;;;16.65;3.35;;;;;;;;;;4996563;28;20034;-73
2022/04/09 02:20:02;;;;;;;14.45;2.90;;;;;;;;;;4997070;28;20410;-71
2022/04/09 02:22:33;;;;;;;12.85;2.60;;;;;;;;;;4996830;28;20420;-72
2022/04/09 02:24:59;;;;;;;17.73;4.18;;;;;;;;;;4996489;28;20038;-72
2022/04/09 02:27:25;;;;;;;17.50;3.00;;;;;;;;;;4996308;28;20419;-72
2022/04/09 02:29:51;;;;;;;15.20;3.50;;;;;;;;;;4996505;28;20483;-79
2022/04/09 02:32:17;;;;;;;15.00;2.97;;;;;;;;;;4996461;28;20026;-78
2022/04/09 02:34:43;;;;;;;11.52;2.80;;;;;;;;;;4996107;28;20026;-72
2022/04/09 02:37:09;;;;;;;14.93;2.75;;;;;;;;;;4996071;28;20076;-80
2022/04/09 02:39:36;;;;;;;14.02;2.88;;;;;;;;;;4996326;28;20026;-80
2022/04/09 02:42:02;;;;;;;16.70;3.20;;;;;;;;;;4996561;28;20034;-79
2022/04/09 02:44:29;;;;;;;17.23;3.20;;;;;;;;;;4996294;28;20113;-76
2022/04/09 02:46:55;;;;;;;18.95;3.25;;;;;;;;;;4996545;28;20041;-72
2022/04/09 02:49:21;;;;;;;14.05;3.08;;;;;;;;;;4996323;28;20022;-79
2022/04/09 02:51:47;;;;;;;13.77;3.40;;;;;;;;;;4996220;28;20137;-80
2022/04/09 02:54:17;;;;;;;24.98;4.32;;;;;;;;;;4995931;28;20105;-80
2022/04/09 02:56:44;;;;;;;15.63;2.97;;;;;;;;;;4996297;28;20034;-71
2022/04/09 02:59:12;;;;;;;19.13;3.90;;;;;;;;;;4996053;28;20027;-72
2022/04/09 03:01:38;;;;;;;26.52;3.90;;;;;;;;;;4996048;28;20054;-76
2022/04/09 03:04:04;;;;;;;23.17;3.63;;;;;;;;;;4994926;28;20537;-72
2022/04/09 03:06:30;;;;;;;22.92;4.00;;;;;;;;;;4995833;28;20034;-72
2022/04/09 03:08:56;;;;;;;17.40;3.35;;;;;;;;;;4995694;28;20092;-72
2022/04/09 03:11:22;;;;;;;21.88;3.88;;;;;;;;;;4995701;28;20023;-80
2022/04/09 03:13:48;;;;;;;19.30;3.80;;;;;;;;;;4995620;28;20023;-75
2022/04/09 03:16:14;;;;;;;24.10;4.53;;;;;;;;;;4995586;28;20046;-72
2022/04/09 03:18:40;;;;;;;23.67;4.30;;;;;;;;;;4995574;28;20463;-79
2022/04/09 03:21:06;;;;;;;20.73;3.28;;;;;;;;;;4995644;28;20537;-79
2022/04/09 03:23:32;;;;;;;24.30;3.70;;;;;;;;;;4995398;28;20476;-81
2022/04/09 03:25:58;;;;;;;22.98;4.20;;;;;;;;;;4995495;28;20471;-81
2022/04/09 03:28:24;;;;;;;20.75;3.58;;;;;;;;;;4995429;28;20027;-73
2022/04/09 03:30:50;;;;;;;21.63;4.78;;;;;;;;;;4995296;28;20069;-79
2022/04/09 03:33:17;;;;;;;21.52;3.55;;;;;;;;;;4995024;28;20069;-79
2022/04/09 03:35:43;;;;;;;16.40;3.17;;;;;;;;;;4995488;28;20026;-80
2022/04/09 03:38:12;;;;;;;15.32;3.20;;;;;;;;;;4995225;28;20030;-80
2022/04/09 03:40:42;;;;;;;20.45;3.70;;;;;;;;;;4995218;28;20042;-72
2022/04/09 03:43:08;;;;;;;16.25;3.20;;;;;;;;;;4994987;28;20037;-73
2022/04/09 03:45:34;;;;;;;18.02;3.38;;;;;;;;;;4995207;28;20026;-80
2022/04/09 03:48:00;;;;;;;22.40;3.45;;;;;;;;;;4995308;28;20030;-79
2022/04/09 03:50:27;;;;;;;17.23;3.38;;;;;;;;;;4994912;28;20030;-72
2022/04/09 03:52:53;;;;;;;27.98;4.20;;;;;;;;;;4994895;28;20054;-72
2022/04/09 03:55:19;;;;;;;18.50;3.53;;;;;;;;;;4995024;28;20450;-72
2022/04/09 03:57:46;;;;;;;17.38;3.13;;;;;;;;;;4994784;28;20237;-72
2022/04/09 04:00:14;;;;;;;18.63;4.25;;;;;;;;;;4995040;28;20034;-80
2022/04/09 04:02:40;;;;;;;14.18;2.53;;;;;;;;;;4994595;28;20495;-72
2022/04/09 04:05:07;;;;;;;19.63;3.28;;;;;;;;;;4994737;28;20049;-75
2022/04/09 04:07:33;;;;;;;15.20;3.08;;;;;;;;;;4994727;28;20379;-79
2022/04/09 04:10:09;;;;;;;16.60;3.53;;;;;;;;;;4994748;28;20037;-80
2022/04/09 04:12:35;;;;;;;14.90;2.88;;;;;;;;;;4994612;28;20590;-73
2022/04/09 04:15:02;;;;;;;15.98;3.45;;;;;;;;;;4994460;28;20106;-81
2022/04/09 04:17:37;;;;;;;16.20;3.20;;;;;;;;;;4994156;28;20029;-71
2022/04/09 04:20:05;;;;;;;17.98;3.30;;;;;;;;;;4994447;28;20022;-72
2022/04/09 04:22:31;;;;;;;13.18;3.13;;;;;;;;;;4994362;28;20030;-78
2022/04/09 04:24:57;;;;;;;17.75;3.65;;;;;;;;;;4994163;28;20034;-72
2022/04/09 04:27:23;;;;;;;15.77;3.10;;;;;;;;;;4994348;28;20042;-79
2022/04/09 04:29:49;;;;;;;14.63;2.92;;;;;;;;;;4994279;28;20101;-81
2022/04/09 04:32:15;;;;;;;16.38;3.30;;;;;;;;;;4993971;28;20077;-81
2022/04/09 04:34:41;;;;;;;21.02;3.67;;;;;;;;;;4994037;28;20022;-73
2022/04/09 04:37:07;;;;;;;24.15;2.92;;;;;;;;;;4993990;28;20026;-72
2022/04/09 04:39:33;;;;;;;18.17;4.90;;;;;;;;;;4993977;28;20080;-72
2022/04/09 04:41:59;;;;;;;21.02;3.70;;;;;;;;;;4994056;28;20085;-80
2022/04/09 04:44:25;;;;;;;15.95;3.17;;;;;;;;;;4994167;28;20074;-75
2022/04/09 04:46:51;;;;;;;14.05;2.78;;;;;;;;;;4993958;28;20038;-80
2022/04/09 04:49:17;;;;;;;16.35;3.58;;;;;;;;;;4993734;28;20027;-81
2022/04/09 04:51:43;;;;;;;17.00;3.78;;;;;;;;;;4993960;28;20395;-72
2022/04/09 04:54:09;;;;;;;15.40;3.15;;;;;;;;;;4993610;28;20040;-80
2022/04/09 04:56:35;;;;;;;15.70;3.40;;;;;;;;;;4993664;28;20026;-73
2022/04/09 04:59:01;;;;;;;14.48;3.03;;;;;;;;;;4993600;28;20089;-72
2022/04/09 05:01:27;;;;;;;16.80;3.22;;;;;;;;;;4993519;28;20113;-72
2022/04/09 05:03:53;;;;;;;14.02;2.95;;;;;;;;;;4993528;28;20046;-73
2022/04/09 05:06:20;;;;;;;17.73;3.20;;;;;;;;;;4993766;28;20458;-80
2022/04/09 05:08:46;;;;;;;18.52;3.33;;;;;;;;;;4993882;28;20038;-72
2022/04/09 05:11:12;;;;;;;14.55;2.88;;;;;;;;;;4993749;28;20045;-80
2022/04/09 05:13:38;;;;;;;17.95;3.90;;;;;;;;;;4993550;28;20030;-73
2022/04/09 05:16:04;;;;;;;13.13;2.90;;;;;;;;;;4993443;28;20502;-80
2022/04/09 05:18:32;;;;;;;17.25;2.95;;;;;;;;;;4992452;28;20352;-80
2022/04/09 05:20:58;;;;;;;20.35;3.85;;;;;;;;;;4993503;28;20027;-72
2022/04/09 05:23:24;;;;;;;13.57;3.42;;;;;;;;;;4993330;28;20022;-73
2022/04/09 05:25:50;;;;;;;16.08;3.33;;;;;;;;;;4993055;28;20026;-73
2022/04/09 05:28:16;;;;;;;17.33;3.25;;;;;;;;;;4992893;28;20109;-80
2022/04/09 05:30:45;;;;;;;21.30;3.90;;;;;;;;;;4993394;28;20058;-72
2022/04/09 05:33:11;;;;;;;16.52;3.22;;;;;;;;;;4993540;28;20105;-80
2022/04/09 05:35:37;;;;;;;19.65;3.50;;;;;;;;;;4993024;28;20026;-73
2022/04/09 05:38:03;;;;;;;17.30;3.05;;;;;;;;;;4993489;28;20030;-80
2022/04/09 05:40:29;;;;;;;13.38;2.83;;;;;;;;;;4993244;28;20026;-72
2022/04/09 05:42:56;;;;;;;17.73;3.63;;;;;;;;;;4993321;28;20080;-72
2022/04/09 05:45:22;;;;;;;19.25;3.63;;;;;;;;;;4993494;28;20407;-72
2022/04/09 05:47:48;;;;;;;13.20;3.25;;;;;;;;;;4993220;28;20018;-79
2022/04/09 05:50:15;;;;;;;10.20;2.75;;;;;;;;;;4992802;28;20022;-78
2022/04/09 05:52:41;;;;;;;16.13;3.80;;;;;;;;;;4992901;28;20018;-80
2022/04/09 05:55:07;;;;;;;19.38;4.22;;;;;;;;;;4993348;28;20529;-79
2022/04/09 05:57:34;;;;;;;18.05;3.42;;;;;;;;;;4993246;28;20058;-75
2022/04/09 06:00:01;;;;;;;17.02;2.78;;;;;;;;;;4992944;28;20030;-77
2022/04/09 06:02:27;;;;;;;15.15;3.20;;;;;;;;;;4993429;28;20073;-72
2022/04/09 06:04:53;;;;;;;16.60;3.17;;;;;;;;;;4993048;28;20038;-81
2022/04/09 06:07:19;;;;;;;19.48;3.58;;;;;;;;;;4993207;28;20027;-79
2022/04/09 06:09:46;;;;;;;21.13;3.92;;;;;;;;;;4993158;28;20475;-71
2022/04/09 06:12:13;;;;;;;16.75;3.33;;;;;;;;;;4992898;28;20037;-72
2022/04/09 06:14:39;;;;;;;17.98;3.33;;;;;;;;;;4993110;28;20122;-72
2022/04/09 06:17:05;;;;;;;18.67;3.55;;;;;;;;;;4993349;28;20054;-72
2022/04/09 06:19:31;;;;;;;15.68;3.17;;;;;;;;;;4993366;28;20022;-72
2022/04/09 06:21:57;;;;;;;20.40;4.00;;;;;;;;;;4992854;28;20069;-73
2022/04/09 06:24:23;;;;;;;18.52;3.13;;;;;;;;;;4990856;28;20038;-72
2022/04/09 06:26:50;;;;;;;14.90;3.10;;;;;;;;;;4992650;28;20106;-80
2022/04/09 06:29:16;;;;;;;20.27;4.30;;;;;;;;;;4992566;28;20030;-78
2022/04/09 06:31:42;;;;;;;17.67;3.17;;;;;;;;;;4993060;28;20113;-72
2022/04/09 06:34:08;;;;;;;17.95;3.55;;;;;;;;;;4992800;28;20101;-71
2022/04/09 06:36:34;;;;;;;17.50;3.15;;;;;;;;;;4992564;28;20034;-71
2022/04/09 06:39:00;;;;;;;16.60;3.30;;;;;;;;;;4993674;28;20026;-71
2022/04/09 06:41:28;;;;;;;13.05;3.38;;;;;;;;;;4996324;28;20498;-72
2022/04/09 06:43:55;;;;;;;18.95;3.58;;;;;;;;;;4996372;28;20030;-71
2022/04/09 06:46:21;;;;;;;18.13;3.58;;;;;;;;;;4996145;28;20022;-72
2022/04/09 06:48:47;;;;;;;19.25;3.60;;;;;;;;;;4996291;28;20030;-71
2022/04/09 06:51:13;;;;;;;13.32;2.70;;;;;;;;;;4996139;28;20019;-71
2022/04/09 06:53:39;;;;;;;15.75;3.40;;;;;;;;;;4994061;28;20029;-71
2022/04/09 06:56:05;;;;;;;13.07;2.88;;;;;;;;;;4993361;28;20061;-71
2022/04/09 06:58:31;;;;;;;14.73;3.50;;;;;;;;;;4993476;28;20042;-71
2022/04/09 07:00:58;;;;;;;17.67;3.60;;;;;;;;;;4995328;28;20487;-70
2022/04/09 07:03:24;;;;;;;16.88;2.80;;;;;;;;;;4995813;28;20038;-81
2022/04/09 07:05:50;;;;;;;16.83;3.47;;;;;;;;;;4995819;28;20026;-71
2022/04/09 07:08:17;;;;;;;17.02;3.13;;;;;;;;;;4995352;28;20022;-70
2022/04/09 07:10:43;;;;;;;18.92;3.22;;;;;;;;;;4995980;28;20172;-81
2022/04/09 07:13:09;;;;;;;18.25;3.08;;;;;;;;;;4995825;28;20387;-70
2022/04/09 07:15:35;;;;;;;20.48;3.55;;;;;;;;;;4995445;28;20050;-69
2022/04/09 07:18:01;;;;;;;20.30;3.38;;;;;;;;;;4993000;28;20390;-71
2022/04/09 07:20:29;;;;;;;24.10;4.00;;;;;;;;;;4993291;28;20375;-70
2022/04/09 07:22:55;;;;;;;13.82;3.55;;;;;;;;;;4995334;28;20023;-70
2022/04/09 07:25:21;;;;;;;15.88;3.78;;;;;;;;;;4995599;28;20284;-70
2022/04/09 07:27:48;;;;;;;17.92;3.15;;;;;;;;;;4994886;28;20050;-70
2022/04/09 07:30:17;;;;;;;14.65;3.03;;;;;;;;;;4993864;28;20034;-70
2022/04/09 07:32:44;;;;;;;16.00;2.95;;;;;;;;;;4995480;28;20022;-71
2022/04/09 07:35:13;;;;;;;20.10;3.42;;;;;;;;;;4995656;28;20022;-71
2022/04/09 07:37:43;;;;;;;16.58;3.03;;;;;;;;;;4995372;28;20026;-81
2022/04/09 07:40:10;;;;;;;14.40;3.25;;;;;;;;;;4995264;28;20033;-71
2022/04/09 07:42:36;;;;;;;11.50;2.83;;;;;;;;;;4995285;28;20029;-70
2022/04/09 07:45:03;;;;;;;17.20;2.75;;;;;;;;;;4995100;28;20030;-70
2022/04/09 07:47:30;;;;;;;25.38;4.28;;;;;;;;;;4995153;28;20514;-72
2022/04/09 07:49:56;;;;;;;15.38;3.28;;;;;;;;;;4994784;28;20018;-70
2022/04/09 07:52:22;;;;;;;13.75;3.15;;;;;;;;;;4995363;28;20026;-70
2022/04/09 07:54:48;;;;;;;18.80;4.57;;;;;;;;;;4995280;28;20022;-70
2022/04/09 07:57:14;;;;;;;12.63;2.78;;;;;;;;;;4995009;28;20023;-70
2022/04/09 07:59:40;;;;;;;12.88;2.97;;;;;;;;;;4994826;28;20014;-72
2022/04/09 08:02:07;;;;;;;17.92;3.53;;;;;;;;;;4994795;28;20051;-69
2022/04/09 08:04:33;;;;;;;17.10;3.28;;;;;;;;;;4994481;28;20046;-70
2022/04/09 08:06:59;;;;;;;15.98;3.03;;;;;;;;;;4994499;28;20076;-70
2022/04/09 08:09:25;;;;;;;11.05;3.08;;;;;;;;;;4994447;28;20053;-70
2022/04/09 08:11:52;;;;;;;14.80;2.95;;;;;;;;;;4994557;28;20026;-69
2022/04/09 08:14:18;;;;;;;16.00;2.97;;;;;;;;;;4994302;28;20057;-70
2022/04/09 08:16:45;;;;;;;19.75;3.33;;;;;;;;;;4994444;28;20054;-70
2022/04/09 08:19:11;;;;;;;17.15;3.10;;;;;;;;;;4994526;28;20475;-70
2022/04/09 08:21:37;;;;;;;13.05;2.88;;;;;;;;;;4994754;28;20025;-70
2022/04/09 08:24:03;;;;;;;19.60;3.67;;;;;;;;;;4994586;28;20030;-70
2022/04/09 08:26:29;;;;;;;14.85;3.05;;;;;;;;;;4994493;28;20449;-70
2022/04/09 08:28:56;;;;;;;13.23;3.10;;;;;;;;;;4994490;28;20058;-70
2022/04/09 08:31:22;;;;;;;17.13;2.85;;;;;;;;;;4994307;28;20026;-70
2022/04/09 08:33:49;;;;;;;17.75;2.78;;;;;;;;;;4994234;28;20152;-70
2022/04/09 08:36:15;;;;;;;13.63;2.42;;;;;;;;;;4994665;28;20022;-70
2022/04/09 08:38:41;;;;;;;12.95;2.97;;;;;;;;;;4994304;28;20034;-70
2022/04/09 08:41:07;;;;;;;16.17;3.25;;;;;;;;;;4993984;28;20037;-70
2022/04/09 08:43:34;;;;;;;13.98;2.70;;;;;;;;;;4994120;28;20368;-70
2022/04/09 08:46:02;;;;;;;17.98;3.10;;;12.20;73.80;;;;;;4994027;28;20026;-70
2022/04/09 08:48:29;;;;;;;14.05;2.75;;;16.40;65.20;;;;;;4993979;28;20022;-78
2022/04/09 08:50:55;;;;;;;17.30;3.47;;;16.30;65.20;;;;;;4993894;28;20025;-69
2022/04/09 08:53:21;;;;;;;15.77;3.05;;;16.40;65.40;;;;;;4993059;28;20109;-70
2022/04/09 08:55:48;;;;;;;17.38;3.15;;;16.40;65.70;;;;;;4993873;28;20041;-69
2022/04/09 08:58:14;;;;;;;13.25;3.53;;;16.40;65.00;;;;;;4994097;28;20038;-69
2022/04/09 09:00:42;;;;;;;12.93;2.97;;;16.40;64.80;;;;;;4993334;28;20022;-70
2022/04/09 09:03:10;;;;;;;21.80;3.38;;;16.40;65.10;;;;;;4993265;28;20045;-70
2022/04/09 09:05:37;;;;;;;13.10;2.67;;;16.40;64.40;;;;;;4993544;28;20545;-70
2022/04/09 09:08:04;;;;;;;25.35;3.38;;;16.40;64.70;;;;;;4993822;28;20027;-69
2022/04/09 09:10:30;;;;;;;12.07;2.85;;;16.40;63.90;;;;;;4993805;28;20130;-70
2022/04/09 09:13:05;;;;;;;11.93;3.35;;;16.40;63.60;;;;;;4993706;28;20122;-70
2022/04/09 09:15:46;;;;;;;15.15;2.80;;;16.50;63.20;;;;;;4993695;28;20026;-70
2022/04/09 09:18:25;;;;;;;15.38;2.83;;;16.50;63.00;;;;;;4993822;28;20525;-69
2022/04/09 09:20:56;;;;;;;13.35;2.63;;;16.50;63.30;;;;;;4993938;28;20022;-69
2022/04/09 09:23:31;;;;;;;15.77;3.15;;;16.50;62.80;;;;;;4993486;28;20026;-69
2022/04/09 09:25:58;;;;;;;16.58;3.05;;;16.50;62.80;;;;;;4993319;28;20096;-69
2022/04/09 09:28:24;;;;;;;14.27;2.50;;;16.50;62.20;;;;;;4992159;28;20023;-70
2022/04/09 09:30:50;;;;;;;19.60;3.78;;;16.50;61.90;;;;;;4992465;28;20045;-70
2022/04/09 09:33:16;;;;;;;14.27;3.05;;;16.60;62.60;;;;;;4993323;28;20022;-70
2022/04/09 09:35:52;;;;;;;14.98;2.85;;;16.60;62.50;;;;;;4993263;28;20049;-75
2022/04/09 09:38:19;;;;;;;17.45;2.90;;;16.60;62.00;;;;;;4992840;28;20030;-70
2022/04/09 09:40:44;;;;;;;16.40;2.40;;;16.70;62.20;;;;;;4992633;28;20352;-70
2022/04/09 09:43:21;;;;;;;13.48;2.72;;;16.70;62.30;;;;;;4992036;28;20046;-70
2022/04/09 09:45:48;;;;;;;11.90;2.75;;;16.70;62.30;;;;;;4993449;28;20155;-70
2022/04/09 09:48:24;;;;;;;11.75;2.45;;;16.80;62.50;;;;;;4993642;28;20038;-70
2022/04/09 09:50:52;;;;;;;14.55;2.83;;;16.80;62.60;;;;;;4993279;28;20038;-70
2022/04/09 09:53:31;;;;;;;12.40;2.55;;;16.90;61.50;;;;;;4991893;28;20445;-76
2022/04/09 09:55:59;;;;;;;21.73;2.85;;;17.00;61.50;;;;;;4993317;28;20038;-70
2022/04/09 09:58:27;;;;;;;13.82;2.67;;;17.00;60.80;;;;;;4992971;28;20041;-72
2022/04/09 10:00:57;;;;;;;12.98;2.85;;;17.00;60.50;;;;;;4992068;28;20042;-70
2022/04/09 10:03:23;;;;;;;17.42;2.83;;;;;;;;;;4992736;28;20054;-70
2022/04/09 10:05:50;;;;;;;17.63;3.63;;;;;;;;;;4992705;28;20041;-70
2022/04/09 10:08:17;;;;;;;8.80;2.45;;;;;;;;;;4992907;28;20475;-79
2022/04/09 10:10:48;;;;;;;15.68;3.58;;;;;;;;;;4992749;28;20030;-69
2022/04/09 10:13:16;;;;;;;16.52;3.25;;;;;;;;;;4994260;28;20030;-74
2022/04/09 10:15:46;;;;;;;16.30;3.20;;;;;;;;;;4996562;28;20029;-70
2022/04/09 10:18:13;;;;;;;17.73;2.97;;;;;;;;;;4996605;28;20041;-71
2022/04/09 10:20:39;;;;;;;13.93;3.00;;;;;;;;;;4996608;28;20030;-70
2022/04/09 10:23:09;;;;;;;11.60;3.10;;;;;;;;;;4996219;28;20073;-70
2022/04/09 10:25:39;;;;;;;15.02;3.30;;;;;;;;;;4996655;28;20458;-71
2022/04/09 10:28:06;;;;;;;15.95;2.97;;;;;;;;;;4996657;28;20027;-71
2022/04/09 10:30:42;;;;;;;15.25;3.05;;;;;;;;;;4996122;28;20088;-71
2022/04/09 10:33:24;;;;;;;14.45;3.20;;;;;;;;;;4996519;28;20495;-70
2022/04/09 10:35:50;;;;;;;15.07;2.97;;;;;;;;;;4996433;28;20041;-70
2022/04/09 10:38:23;;;;;;;10.60;3.10;;;;;;;;;;4996039;28;20022;-70
2022/04/09 10:40:55;;;;;;;18.50;3.13;;;;;;;;;;4995767;28;20483;-70
2022/04/09 10:43:24;;;;;;;16.60;3.13;;;;;;;;;;4995851;28;20058;-70
2022/04/09 10:46:02;;;;;;;15.88;2.95;;;;;;;;;;4995989;28;20265;-70
2022/04/09 10:48:42;;;;;;;17.58;3.05;;;17.00;60.80;;;;;;4996114;28;20038;-70
2022/04/09 10:51:13;;;;;;;16.65;4.05;;;18.30;57.60;;;;;;4995849;28;20142;-70
2022/04/09 10:53:47;;;;;;;14.50;2.70;;;18.40;56.50;;;;;;4995511;28;20034;-69
2022/04/09 10:56:29;;;;;;;15.65;3.00;;;18.50;56.60;;;;;;4995875;28;20031;-70
2022/04/09 10:59:04;;;;;;;12.98;3.00;;;18.50;56.30;;;;;;4996260;28;20037;-69
2022/04/09 11:01:51;;;;;;;9.32;2.35;;;18.60;56.40;;;;;;4995950;28;20047;-69
2022/04/09 11:04:43;;;;;;;10.63;2.20;;;18.70;55.20;;;;;;4996381;28;20048;-69
2022/04/09 11:07:15;;;;;;;18.58;2.70;;;18.80;55.60;;;;;;4994834;28;20073;-69
2022/04/09 11:09:58;;;;;;;12.73;2.95;;;18.80;55.20;;;;;;4996213;28;20062;-69
2022/04/09 11:12:40;;;;;;;16.60;3.45;;;18.90;54.60;;;;;;4995973;28;20060;-69
2022/04/09 11:15:10;;;;;;;14.00;3.17;;;18.90;53.80;;;;;;4993301;28;20105;-70
2022/04/09 11:17:37;;;;;;;18.77;2.95;;;18.90;54.70;;;;;;4993369;28;20026;-78
2022/04/09 11:20:17;;;;;;;15.75;2.92;;;19.00;53.80;;;;;;4995684;28;20474;-70
2022/04/09 11:22:54;;;;;;;15.88;2.47;;;19.00;54.20;;;;;;4995364;28;20026;-69
2022/04/09 11:25:24;;;;;;;12.68;3.08;;;19.00;53.10;;;;;;4994641;28;20081;-69
2022/04/09 11:27:51;;;;;;;16.42;4.07;;;19.10;53.30;;;;;;4995698;28;20122;-70
2022/04/09 11:30:18;;;;;;;12.65;3.22;;;19.10;53.00;;;;;;4995593;28;20022;-70
2022/04/09 11:32:46;;;;;;;19.48;2.83;;;19.10;53.30;;;;;;4995367;28;20069;-69
2022/04/09 11:35:12;;;;;;;10.75;2.75;;;19.10;52.90;;;;;;4995698;28;20023;-69
2022/04/09 11:37:43;;;;;;;10.15;2.53;;;19.10;52.10;;;;;;4994816;28;20121;-70
2022/04/09 11:40:11;;;;;;;12.88;2.53;;;19.10;51.60;;;;;;4992561;28;20029;-70
2022/04/09 11:42:44;;;;;;;14.35;2.88;;;19.10;51.80;;;;;;4992716;28;20061;-69
2022/04/09 11:45:31;;;;;;;13.27;2.53;;;19.10;51.70;;;;;;4993893;28;20026;-69
2022/04/09 11:48:02;;;;;;;3.42;0.70;;;19.20;53.90;;;;;;4995137;28;20475;-70
2022/04/09 11:50:32;;;;;;;3.15;0.70;;;19.10;47.20;;;;;;4995036;28;20030;-71
2022/04/09 11:53:11;;;;;;;5.32;0.40;;;18.90;44.80;;;;;;4994935;28;20077;-70
2022/04/09 11:55:37;;;;;;;6.20;1.10;;;18.60;45.00;;;;;;4994502;28;20027;-70
2022/04/09 11:58:03;;;;;;;3.13;0.60;;;18.40;45.50;;;;;;4994773;28;20084;-70
2022/04/09 12:00:30;;;;;;;13.73;7.80;;;18.20;45.70;;;;;;4994335;28;20026;-70
2022/04/09 12:03:04;;;;;;;3.83;0.90;;;18.10;45.70;;;;;;4994625;28;20029;-70
2022/04/09 12:05:39;;;;;;;6.15;0.60;;;17.90;46.50;;;;;;4994801;28;20046;-77
2022/04/09 12:08:11;;;;;;;4.63;0.40;;;17.80;44.90;;;;;;4994669;28;20034;-70
2022/04/09 12:10:49;;;;;;;;;;;17.70;44.70;;;;;;4995323;28;20419;-70
2022/04/09 12:13:15;;;;;;;2.88;0.57;;;17.50;43.00;;;;;;4994708;28;19906;-70
2022/04/09 12:15:40;;;;;;;1.38;0.40;;;17.30;44.50;;;;;;4994274;28;20036;-69
2022/04/09 12:18:25;;;;;;;0.90;0.40;;;17.10;43.20;;;;;;4994441;28;20075;-69
2022/04/09 12:20:51;;;;;;;2.47;0.35;;;17.00;44.20;;;;;;4994514;28;20415;-69
2022/04/09 12:23:28;;;;;;;1.35;0.30;;;16.90;44.90;;;;;;4994115;28;20498;-70
2022/04/09 12:25:54;;;;;;;3.28;0.40;;;16.80;43.80;;;;;;4994348;28;20109;-69
2022/04/09 12:28:25;;;;;;;1.80;0.40;;;16.60;43.90;;;;;;4994153;28;20106;-69
2022/04/09 12:30:53;;;;;;;4.47;0.40;;;16.50;43.80;;;;;;4994344;28;20026;-69
2022/04/09 12:33:19;;;;;;;1.95;0.30;;;;;;;;;;4994453;28;20101;-71
2022/04/09 12:35:45;;;;;;;3.45;0.30;;;;;;;;;;4994268;28;20027;-71
2022/04/09 12:38:16;;;;;;;2.30;0.40;;;;;;;;;;4993971;28;20530;-71
2022/04/09 12:40:42;;;;;;;3.17;0.30;;;;;;;;;;4994014;28;20033;-71
2022/04/09 12:43:28;;;;;;;1.17;0.20;;;;;;;;;;4994145;28;20383;-71
2022/04/09 12:46:05;;;;;;;1.80;0.65;;;;;;;;;;4994101;28;20103;-71
2022/04/09 12:48:50;;;;;;;3.53;0.68;;;;;;;;;;4994104;28;20034;-71
2022/04/09 12:51:21;;;;;;;0.85;0.35;;;;;;;;;;4994170;28;20026;-72
2022/04/09 12:53:48;;;;;;;2.97;0.50;;;;;;;;;;4993940;28;20030;-71
2022/04/09 12:56:15;;;;;;;4.30;0.47;;;;;;;;;;4993634;28;20132;-71
2022/04/09 12:58:41;;;;;;;5.28;0.40;;;;;;;;;;4993780;28;20033;-70
2022/04/09 13:01:09;;;;;;;2.80;0.40;;;;;;;;;;4993372;28;20050;-70
2022/04/09 13:03:35;;;;;;;1.35;0.50;;;;;;;;;;4993757;28;20023;-70
2022/04/09 13:06:01;;;;;;;2.72;0.50;;;;;;;;;;4993946;28;20030;-70
2022/04/09 13:08:29;;;;;;;3.40;0.40;;;;;;;;;;4993749;28;20093;-71
2022/04/09 13:10:55;;;;;;;3.30;0.40;;;;;;;;;;4993644;28;20034;-70
2022/04/09 13:13:21;;;;;;;4.40;0.40;;;;;;;;;;4993772;28;20468;-70
2022/04/09 13:15:47;;;;;;;1.55;0.38;;;;;;;;;;4993688;28;20151;-70
2022/04/09 13:18:13;;;;;;;3.17;0.40;;;;;;;;;;4993561;28;20022;-71
2022/04/09 13:20:39;;;;;;;1.33;0.40;;;;;;;;;;4993880;28;20056;-70
2022/04/09 13:23:06;;;;;;;2.17;0.80;;;;;;;;;;4993702;28;20022;-70
2022/04/09 13:25:32;;;;;;;3.30;0.45;;;;;;;;;;4993635;28;20449;-76
2022/04/09 13:27:58;;;;;;;1.08;0.65;;;16.30;42.80;;;;;;4993720;28;20019;-71
2022/04/09 13:30:28;;;;;;;113.35;4.82;;;14.40;48.90;;;;;;4993577;28;20049;-72
2022/04/09 13:32:54;;;;;;;5.53;0.50;;;;;;;;;;4993396;28;20030;-72
2022/04/09 13:35:23;;;;;;;1.80;0.32;;;;;;;;;;4993528;28;20015;-70
2022/04/09 13:37:49;;;;;;;2.65;0.30;;;;;;;;;;4993594;28;20030;-70
2022/04/09 13:40:15;;;;;;;1.58;0.30;;;;;;;;;;4993287;28;20026;-71
2022/04/09 13:42:41;;;;;;;2.25;0.30;;;;;;;;;;4993739;28;20030;-70
2022/04/09 13:45:08;;;;;;;1.48;0.20;;;;;;;;;;4993291;28;20030;-69
2022/04/09 13:47:34;;;;;;;1.13;0.25;;;;;;;;;;4994083;28;20157;-69
2022/04/09 13:50:00;;;;;;;4.07;0.40;;;;;;;;;;4997483;28;20041;-70
2022/04/09 13:52:26;;;;;;;1.85;0.50;;;;;;;;;;4997214;28;20033;-71
2022/04/09 13:54:54;;;;;;;2.90;0.60;;;;;;;;;;4995589;28;20058;-70
2022/04/09 13:57:20;;;;;;;0.80;0.30;;;;;;;;;;4994751;28;20030;-71
2022/04/09 13:59:46;;;;;;;1.02;0.30;;;;;;;;;;4994681;28;20030;-71
2022/04/09 14:02:12;;;;;;;0.82;0.60;;;;;;;;;;4996328;28;20054;-70
2022/04/09 14:04:38;;;;;;;5.28;0.50;;;;;;;;;;4997138;28;20100;-71
2022/04/09 14:07:04;;;;;;;2.85;0.63;;;;;;;;;;4996943;28;20096;-72
2022/04/09 14:09:30;;;;;;;3.17;0.50;;;;;;;;;;4997046;28;20026;-71